Latest Coastal Weather Observations for Hillarys Point Boat Harbour

IDW60701

Issued at 9:52 am WST Tuesday 1 September 2015 (issued every 10 minutes, with the page automatically refreshed every 10 minutes)

About coastal observations | Map of coastal stations | Coastal observations for WA | Marine services | Other Formats
Station Details ID: 009265 Name: HILLARYS BOAT HARBOUR NTC AWS Lat: -31.83 Lon: 115.74 Height: 0.0 m
Data from the previous 72 hours. | See also: Recent months for locations in Western Australia
Date/Time
WST
Temp

°C
Wind Pressure Rain
since 9am
mm
Weather Cloud Vis
km
Sea
Height
m
Swell
Dir
 
Speed
knots
Gust
knots
hPa Trend Height
m
Period
s
Dir
01/09:30am 11.8 SSE 7 13 1023.8 - - - - - - - - -
01/09:00am 11.2 SSE 6 13 1023.6 - - - - - - - - -
01/08:30am 10.7 SSE 5 10 1023.3 - - - - - - - - -
01/08:00am 10.3 SSE 6 13 1023.0 - - - - - - - - -
01/07:30am 9.8 SE 3 9 1022.4 - - - - - - - - -
01/07:00am 9.4 SSE 3 7 1022.0 - - - - - - - - -
01/06:30am 9.5 SSE 5 10 1021.7 - - - - - - - - -
01/06:00am 9.4 SE 3 7 1021.2 - - - - - - - - -
01/05:30am 9.3 SE 2 5 1020.9 - - - - - - - - -
01/05:00am 9.4 SE 3 8 1020.7 - - - - - - - - -
01/04:30am 9.4 SE 3 7 1020.5 - - - - - - - - -
01/04:00am 9.7 SSE 3 9 1020.3 - - - - - - - - -
01/03:30am 9.3 ESE 3 10 1020.0 - - - - - - - - -
01/03:00am 9.4 ESE 2 6 1019.7 - - - - - - - - -
01/02:30am 10.2 SSE 5 14 1019.8 - - - - - - - - -
01/02:00am 10.6 SSE 6 13 1019.8 - - - - - - - - -
01/01:30am 13.6 SSW 10 20 1019.4 - - - - - - - - -
01/01:00am 13.9 SSW 11 19 1019.4 - - - - - - - - -
01/12:30am 13.1 SSW 12 25 1019.6 - - - - - - - - -
01/12:00am 14.1 SSW 12 20 1019.2 - - - - - - - - -
 
Date/Time
WST
Temp

°C
Wind Pressure Rain
since 9am
mm
Weather Cloud Vis
km
Sea
Height
m
Swell
Dir
 
Speed
knots
Gust
knots
hPa Trend Height
m
Period
s
Dir
31/11:30pm 14.1 SSW 10 21 1019.3 - - - - - - - - -
31/11:00pm 14.0 SSW 10 18 1019.2 - - - - - - - - -
31/10:30pm 14.7 SSW 10 20 1019.2 - - - - - - - - -
31/10:00pm 14.7 SSW 11 21 1019.3 - - - - - - - - -
31/09:30pm 12.2 SSE 3 14 1019.3 - - - - - - - - -
31/09:00pm 12.6 SSE 5 13 1019.2 - - - - - - - - -
31/08:30pm 13.8 SSW 9 15 1018.9 - - - - - - - - -
31/08:00pm 14.3 SSW 7 15 1018.6 - - - - - - - - -
31/07:30pm 14.0 SW 13 26 1018.4 - - - - - - - - -
31/07:00pm 14.3 SSW 11 19 1018.2 - - - - - - - - -
31/06:30pm 14.5 SSW 10 19 1017.7 - - - - - - - - -
31/06:03pm 14.6 SW 15 26 1017.5 - - - - - - - - -
31/06:00pm 14.4 SW 17 26 1017.4 - - - - - - - - -
31/05:30pm 15.7 SW 15 23 1017.0 - - - - - - - - -
31/05:00pm 16.1 SW 17 25 1016.8 - - - - - - - - -
31/04:30pm 16.2 SW 16 22 1016.5 - - - - - - - - -
31/04:00pm 16.0 SW 15 23 1016.5 - - - - - - - - -
31/03:49pm 15.3 SW 15 26 1016.5 - - - - - - - - -
31/03:30pm 16.4 SW 16 23 1016.3 - - - - - - - - -
31/03:00pm 14.9 SW 16 23 1016.3 - - - - - - - - -
31/02:30pm 16.1 WSW 16 22 1016.2 - - - - - - - - -
31/02:00pm 16.1 WSW 16 23 1016.2 - - - - - - - - -
31/01:30pm 15.2 W 11 17 1016.4 - - - - - - - - -
31/01:05pm 13.4 WNW 12 31 1016.6 - - - - - - - - -
31/01:04pm 13.7 WNW 11 31 1016.5 - - - - - - - - -
31/01:00pm 15.7 WNW 8 14 1016.3 - - - - - - - - -
31/12:30pm 15.3 W 8 15 1017.0 - - - - - - - - -
31/12:00pm 15.1 W 16 27 1017.3 - - - - - - - - -
31/11:30am 15.2 WNW 6 15 1017.8 - - - - - - - - -
31/11:00am 15.0 WNW 6 11 1018.0 - - - - - - - - -
31/10:30am 15.5 WNW 7 11 1018.3 - - - - - - - - -
31/10:00am 14.7 W 10 14 1018.6 - - - - - - - - -
31/09:30am 14.9 N 6 11 1018.7 - - - - - - - - -
31/09:00am 16.1 W 5 9 1018.7 - - - - - - - - -
31/08:30am 16.0 WSW 6 10 1018.8 - - - - - - - - -
31/08:00am 15.9 WSW 8 12 1018.7 - - - - - - - - -
31/07:30am 16.0 WSW 8 12 1018.5 - - - - - - - - -
31/07:00am 15.8 WSW 10 15 1018.5 - - - - - - - - -
31/06:30am 15.7 WSW 10 15 1018.4 - - - - - - - - -
31/06:00am 15.8 WSW 12 16 1018.4 - - - - - - - - -
31/05:30am 15.7 WSW 10 17 1018.4 - - - - - - - - -
31/05:00am 15.1 WSW 8 13 1018.4 - - - - - - - - -
31/04:30am 14.9 WSW 10 14 1018.4 - - - - - - - - -
31/04:00am 15.2 WSW 8 11 1018.5 - - - - - - - - -
31/03:30am 14.8 SW 6 8 1018.7 - - - - - - - - -
31/03:00am 14.8 SW 8 12 1019.0 - - - - - - - - -
31/02:30am 15.2 SSW 3 11 1019.3 - - - - - - - - -
31/02:00am 13.2 E 2 5 1019.2 - - - - - - - - -
31/01:30am 13.3 ENE 3 4 1019.4 - - - - - - - - -
31/01:00am 14.9 SSE 3 5 1019.6 - - - - - - - - -
31/12:30am 15.7 WSW 7 10 1019.7 - - - - - - - - -
31/12:00am 15.9 W 7 12 1019.9 - - - - - - - - -
 
Date/Time
WST
Temp

°C
Wind Pressure Rain
since 9am
mm
Weather Cloud Vis
km
Sea
Height
m
Swell
Dir
 
Speed
knots
Gust
knots
hPa Trend Height
m
Period
s
Dir
30/11:30pm 15.9 WSW 4 11 1020.2 - - - - - - - - -
30/11:00pm 15.7 WSW 10 14 1020.4 - - - - - - - - -
30/10:30pm 16.0 WSW 7 11 1020.6 - - - - - - - - -
30/10:00pm 16.1 W 6 10 1020.7 - - - - - - - - -
30/09:30pm 15.8 W 4 6 1020.8 - - - - - - - - -
30/09:00pm 15.6 W 2 4 1021.1 - - - - - - - - -
30/08:30pm 15.6 W 2 5 1021.0 - - - - - - - - -
30/08:00pm 15.6 SW 3 5 1020.9 - - - - - - - - -
30/07:30pm 15.4 SW 5 9 1020.9 - - - - - - - - -
30/07:00pm 15.9 W 5 8 1020.5 - - - - - - - - -
30/06:30pm 16.0 WSW 5 9 1020.4 - - - - - - - - -
30/06:00pm 16.1 SW 6 9 1020.2 - - - - - - - - -
30/05:30pm 16.1 SW 5 8 1020.0 - - - - - - - - -
30/05:00pm 16.4 SW 5 9 1019.8 - - - - - - - - -
30/04:30pm 16.6 SW 6 10 1019.5 - - - - - - - - -
30/04:00pm 16.5 SSW 4 7 1019.7 - - - - - - - - -
30/03:30pm 16.4 SW 6 10 1019.7 - - - - - - - - -
30/03:00pm 16.7 SSW 5 9 1019.5 - - - - - - - - -
30/02:30pm 16.6 SSW 4 7 1019.3 - - - - - - - - -
30/02:00pm 16.6 SSW 6 9 1019.3 - - - - - - - - -
30/01:30pm 16.6 SSW 5 10 1019.1 - - - - - - - - -
30/01:00pm 16.7 SSW 5 11 1019.3 - - - - - - - - -
30/12:30pm 16.8 SSW 5 11 1019.5 - - - - - - - - -
30/12:00pm 17.0 SSW 6 11 1019.7 - - - - - - - - -
30/11:30am 16.7 SSW 6 12 1019.8 - - - - - - - - -
30/11:00am 16.7 SSW 6 15 1019.8 - - - - - - - - -
30/10:30am 16.8 SSW 9 14 1019.6 - - - - - - - - -
30/10:00am 17.0 SW 11 17 1019.5 - - - - - - - - -
30/09:30am 16.8 SW 8 15 1019.4 - - - - - - - - -
30/09:00am 16.7 SW 10 15 1019.1 - - - - - - - - -
30/08:30am 16.6 SW 12 18 1018.8 - - - - - - - - -
30/08:00am 16.7 SW 11 15 1018.3 - - - - - - - - -
30/07:30am 16.7 SW 12 18 1017.7 - - - - - - - - -
30/07:00am 16.4 SW 11 18 1017.3 - - - - - - - - -
30/06:30am 16.5 SW 9 15 1016.6 - - - - - - - - -
30/06:00am 16.2 SSW 9 16 1016.1 - - - - - - - - -
30/05:30am 16.3 SW 14 19 1015.9 - - - - - - - - -
30/05:00am 16.5 SW 14 19 1015.5 - - - - - - - - -
30/04:30am 16.5 SW 14 22 1015.2 - - - - - - - - -
30/04:00am 17.1 SW 14 19 1014.9 - - - - - - - - -
30/03:30am 17.4 SW 15 21 1014.9 - - - - - - - - -
30/03:00am 17.5 WSW 14 19 1014.8 - - - - - - - - -
30/02:30am 17.1 WSW 11 16 1014.6 - - - - - - - - -
30/02:00am 16.6 WSW 6 10 1014.7 - - - - - - - - -
30/01:30am 16.0 WSW 8 11 1014.7 - - - - - - - - -
30/01:00am 16.6 WSW 10 15 1014.5 - - - - - - - - -
30/12:30am 16.8 WNW 2 4 1014.2 - - - - - - - - -
30/12:00am 16.3 W 7 11 1014.2 - - - - - - - - -
 
Date/Time
WST
Temp

°C
Wind Pressure Rain
since 9am
mm
Weather Cloud Vis
km
Sea
Height
m
Swell
Dir
 
Speed
knots
Gust
knots
hPa Trend Height
m
Period
s
Dir
29/11:30pm 16.7 WSW 6 9 1014.2 - - - - - - - - -
29/11:00pm 15.9 SW 9 13 1014.3 - - - - - - - - -
29/10:30pm 16.9 WSW 12 20 1014.0 - - - - - - - - -
29/10:00pm 16.3 WSW 9 13 1014.1 - - - - - - - - -
29/09:30pm 15.9 WNW 10 17 1014.1 - - - - - - - - -
29/09:09pm 16.0 WNW 15 26 1013.7 - - - - - - - - -
29/09:00pm 15.9 WNW 10 20 1013.6 - - - - - - - - -
29/08:30pm 17.9 N 7 12 1013.2 - - - - - - - - -
29/08:00pm 18.3 NNW 7 11 1013.0 - - - - - - - - -
29/07:30pm 18.4 NNW 6 11 1012.8 - - - - - - - - -
29/07:00pm 18.3 NNW 6 10 1012.7 - - - - - - - - -
29/06:30pm 18.2 NW 5 8 1012.4 - - - - - - - - -
29/06:00pm 18.4 NW 6 9 1012.2 - - - - - - - - -
29/05:30pm 18.7 NW 6 11 1012.0 - - - - - - - - -
29/05:00pm 18.7 WNW 5 10 1011.9 - - - - - - - - -
29/04:30pm 19.1 WNW 6 9 1011.8 - - - - - - - - -
29/04:00pm 19.4 WNW 6 10 1011.8 - - - - - - - - -
29/03:30pm 19.3 WNW 6 12 1011.7 - - - - - - - - -
29/03:00pm 19.2 WNW 6 11 1011.7 - - - - - - - - -
29/02:30pm 19.2 NW 7 13 1011.7 - - - - - - - - -
29/02:00pm 18.4 NNW 7 11 1011.6 - - - - - - - - -
29/01:30pm 17.7 NNW 12 21 1011.8 - - - - - - - - -
29/01:00pm 17.9 NNW 10 17 1012.0 - - - - - - - - -
29/12:30pm 18.6 NNW 11 17 1012.1 - - - - - - - - -
29/12:00pm 18.3 NNW 11 19 1012.4 - - - - - - - - -
29/11:30am 18.1 NNW 8 15 1012.7 - - - - - - - - -
29/11:00am 18.7 NNW 8 15 1012.7 - - - - - - - - -
29/10:30am 19.3 N 10 15 1012.7 - - - - - - - - -
29/10:00am 18.8 N 8 13 1012.9 - - - - - - - - -

Other Formats:

Comma delimited format used in spreadsheet applications
http://www.bom.gov.au/fwo/IDW60701/IDW60701.95605.axf

JavaScript Object Notation format (JSON) in row-major order
http://www.bom.gov.au/fwo/IDW60701/IDW60701.95605.json